createdAt,value
2018-12-05T00:01:43.315Z,100470.81
2018-12-05T00:04:10.808Z,100470.27
2018-12-05T00:06:38.270Z,100473.95
2018-12-05T00:09:05.733Z,100475.94
2018-12-05T00:11:33.172Z,100475.33
2018-12-05T00:14:00.619Z,100477.03
2018-12-05T00:16:28.078Z,100471.86
2018-12-05T00:18:55.537Z,100469.52
2018-12-05T00:21:24.440Z,100471.52
2018-12-05T00:23:51.930Z,100470.95
2018-12-05T00:26:19.460Z,100466.63
2018-12-05T00:28:46.915Z,100466.63
2018-12-05T00:31:14.399Z,100470.87
2018-12-05T00:33:41.927Z,100463.70
2018-12-05T00:36:09.370Z,100464.13
2018-12-05T00:38:36.827Z,100456.59
2018-12-05T00:41:04.266Z,100463.10
2018-12-05T00:43:32.209Z,100461.02
2018-12-05T00:45:59.627Z,100460.67
2018-12-05T00:48:27.060Z,100457.25
2018-12-05T00:50:54.523Z,100460.27
2018-12-05T00:53:21.978Z,100463.45
2018-12-05T00:55:49.442Z,100457.42
2018-12-05T00:58:16.902Z,100453.54
2018-12-05T01:00:44.332Z,100456.57
2018-12-05T01:03:11.779Z,100462.26
2018-12-05T01:05:40.330Z,100454.98
2018-12-05T01:08:07.778Z,100449.39
2018-12-05T01:10:35.191Z,100440.19
2018-12-05T01:13:02.667Z,100430.42
2018-12-05T01:15:30.128Z,100415.30
2018-12-05T01:17:57.561Z,100402.08
2018-12-05T01:20:25.057Z,100416.73
2018-12-05T01:22:52.461Z,100423.01
2018-12-05T01:25:19.909Z,100421.47
2018-12-05T01:27:48.110Z,100423.95
2018-12-05T01:30:15.531Z,100424.44
2018-12-05T01:32:42.967Z,100425.92
2018-12-05T01:35:10.417Z,100426.24
2018-12-05T01:37:37.884Z,100430.31
2018-12-05T01:40:05.300Z,100430.81
2018-12-05T01:42:32.743Z,100430.30
2018-12-05T01:45:00.167Z,100428.14
2018-12-05T01:47:27.617Z,100431.13
2018-12-05T01:49:55.060Z,100428.32
2018-12-05T01:52:22.501Z,100432.16
2018-12-05T01:54:49.944Z,100437.83
2018-12-05T01:57:17.397Z,100438.32
2018-12-05T01:59:44.846Z,100432.70
2018-12-05T02:02:12.331Z,100436.06
2018-12-05T02:04:39.745Z,100435.36
2018-12-05T02:07:07.183Z,100433.20
2018-12-05T02:09:34.696Z,100432.94
2018-12-05T02:12:02.112Z,100441.30
2018-12-05T02:14:29.566Z,100442.99
2018-12-05T02:16:57.006Z,100444.89
2018-12-05T02:19:24.463Z,100437.84
2018-12-05T02:21:51.887Z,100436.89
2018-12-05T02:24:19.351Z,100443.28
2018-12-05T02:26:46.769Z,100438.33
2018-12-05T02:29:14.193Z,100436.56
2018-12-05T02:31:41.616Z,100434.97
2018-12-05T02:34:09.039Z,100437.16
2018-12-05T02:36:36.471Z,100425.66
2018-12-05T02:39:03.926Z,100414.16
2018-12-05T02:41:31.339Z,100421.20
2018-12-05T02:43:58.785Z,100420.84
2018-12-05T02:46:26.229Z,100420.26
2018-12-05T02:48:53.674Z,100418.20
2018-12-05T02:51:21.127Z,100416.44
2018-12-05T02:53:48.590Z,100417.36
2018-12-05T02:56:16.024Z,100411.97
2018-12-05T02:58:43.485Z,100411.59
2018-12-05T03:01:10.946Z,100412.06
2018-12-05T03:03:38.382Z,100412.50
2018-12-05T03:06:05.826Z,100415.48
2018-12-05T03:08:35.053Z,100414.44
2018-12-05T03:11:02.495Z,100405.70
2018-12-05T03:13:29.972Z,100406.34
2018-12-05T03:15:57.419Z,100408.38
2018-12-05T03:18:24.851Z,100407.50
2018-12-05T03:20:52.327Z,100406.17
2018-12-05T03:23:19.740Z,100409.80
2018-12-05T03:25:47.228Z,100406.66
2018-12-05T03:28:14.662Z,100401.17
2018-12-05T03:30:42.308Z,100407.06
2018-12-05T03:33:09.745Z,100399.91
2018-12-05T03:35:39.110Z,100401.30
2018-12-05T03:38:06.529Z,100404.33
2018-12-05T03:40:33.943Z,100395.57
2018-12-05T03:43:01.387Z,100382.24
2018-12-05T03:45:28.815Z,100388.50
2018-12-05T03:47:56.271Z,100390.67
2018-12-05T03:50:23.693Z,100392.53
2018-12-05T03:52:51.147Z,100392.17
2018-12-05T03:55:20.185Z,100386.59
2018-12-05T03:57:46.071Z,100392.81
2018-12-05T04:00:13.533Z,100391.76
2018-12-05T04:02:40.974Z,100384.41
2018-12-05T04:05:08.431Z,100397.44
2018-12-05T04:07:35.884Z,100392.98
2018-12-05T04:10:03.335Z,100387.31
2018-12-05T04:12:30.804Z,100393.08
2018-12-05T04:14:58.319Z,100394.40
2018-12-05T04:17:25.707Z,100398.05
2018-12-05T04:19:53.206Z,100405.92
2018-12-05T04:22:20.651Z,100393.03
2018-12-05T04:24:48.078Z,100395.34
2018-12-05T04:27:15.546Z,100397.43
2018-12-05T04:29:43.013Z,100397.83
2018-12-05T04:32:10.424Z,100389.80
2018-12-05T04:34:37.885Z,100389.57
2018-12-05T04:37:06.422Z,100389.02
2018-12-05T04:39:33.860Z,100390.35
2018-12-05T04:42:01.294Z,100389.63
2018-12-05T04:44:28.725Z,100394.83
2018-12-05T04:46:56.183Z,100395.07
2018-12-05T04:49:23.682Z,100397.78
2018-12-05T04:51:51.131Z,100400.63
2018-12-05T04:54:18.552Z,100404.43
2018-12-05T04:56:45.989Z,100400.03
2018-12-05T04:59:13.404Z,100402.78
2018-12-05T05:01:40.851Z,100398.92
2018-12-05T05:04:08.272Z,100394.79
2018-12-05T05:06:41.572Z,100394.14
2018-12-05T05:09:03.246Z,100390.57
2018-12-05T05:11:30.665Z,100387.81
2018-12-05T05:13:58.140Z,100392.13
2018-12-05T05:16:25.562Z,100385.66
2018-12-05T05:18:52.996Z,100389.52
2018-12-05T05:21:20.456Z,100386.53
2018-12-05T05:23:47.955Z,100377.03
2018-12-05T05:26:15.410Z,100363.33
2018-12-05T05:28:42.834Z,100370.25
2018-12-05T05:31:10.270Z,100372.30
2018-12-05T05:33:37.687Z,100379.78
2018-12-05T05:36:05.141Z,100374.82
2018-12-05T05:38:32.560Z,100369.65
2018-12-05T05:41:00.097Z,100363.47
2018-12-05T05:43:27.524Z,100361.77
2018-12-05T05:45:54.977Z,100358.91
2018-12-05T05:48:22.423Z,100364.69
2018-12-05T05:50:49.874Z,100359.48
2018-12-05T05:53:17.333Z,100353.59
2018-12-05T05:55:44.779Z,100354.41
2018-12-05T05:58:12.224Z,100356.38
2018-12-05T06:00:39.683Z,100353.62
2018-12-05T06:03:07.108Z,100366.73
2018-12-05T06:05:34.531Z,100370.81
2018-12-05T06:08:02.058Z,100372.23
2018-12-05T06:10:29.527Z,100370.58
2018-12-05T06:12:56.950Z,100375.76
2018-12-05T06:15:24.396Z,100377.19
2018-12-05T06:17:51.869Z,100379.87
2018-12-05T06:20:19.304Z,100373.73
2018-12-05T06:22:46.730Z,100380.94
2018-12-05T06:25:14.165Z,100379.62
2018-12-05T06:27:41.593Z,100385.00
2018-12-05T06:30:09.048Z,100387.09
2018-12-05T06:32:36.462Z,100388.52
2018-12-05T06:35:03.890Z,100391.32
2018-12-05T06:37:31.316Z,100383.84
2018-12-05T06:39:58.746Z,100385.72
2018-12-05T06:42:26.224Z,100378.44
2018-12-05T06:44:53.658Z,100386.84
2018-12-05T06:47:21.096Z,100385.92
2018-12-05T06:49:48.503Z,100378.83
2018-12-05T06:52:16.015Z,100379.02
2018-12-05T06:54:43.452Z,100382.87
2018-12-05T06:57:10.887Z,100376.48
2018-12-05T06:59:38.306Z,100375.07
2018-12-05T07:02:05.760Z,100374.78
2018-12-05T07:04:33.225Z,100369.09
2018-12-05T07:07:00.648Z,100365.03
2018-12-05T07:09:28.091Z,100373.83
2018-12-05T07:11:55.538Z,100366.50
2018-12-05T07:14:23.037Z,100373.55
2018-12-05T07:16:50.459Z,100378.38
2018-12-05T07:19:17.906Z,100374.98
2018-12-05T07:21:45.340Z,100374.89
2018-12-05T07:24:12.775Z,100375.63
2018-12-05T07:26:40.208Z,100383.27
2018-12-05T07:29:07.662Z,100387.28
2018-12-05T07:31:35.097Z,100380.10
2018-12-05T07:34:02.590Z,100374.30
2018-12-05T07:36:30.024Z,100379.45
2018-12-05T07:38:58.652Z,100373.73
2018-12-05T07:41:26.162Z,100375.27
2018-12-05T07:43:53.574Z,100375.72
2018-12-05T07:46:21.012Z,100373.90
2018-12-05T07:48:48.442Z,100369.38
2018-12-05T07:51:15.906Z,100373.75
2018-12-05T07:53:44.266Z,100366.47
2018-12-05T07:56:11.711Z,100356.38
2018-12-05T07:58:39.163Z,100355.78
2018-12-05T08:01:06.612Z,100350.97
2018-12-05T08:03:34.072Z,100349.86
2018-12-05T08:06:01.525Z,100354.34
2018-12-05T08:08:29.036Z,100357.97
2018-12-05T08:10:56.477Z,100349.98
2018-12-05T08:13:23.923Z,100348.45
2018-12-05T08:15:51.358Z,100340.66
2018-12-05T08:18:18.826Z,100341.17
2018-12-05T08:20:46.260Z,100342.80
2018-12-05T08:23:13.718Z,100332.23
2018-12-05T08:25:41.172Z,100333.41
2018-12-05T08:28:08.629Z,100335.04
2018-12-05T08:30:36.059Z,100335.98
2018-12-05T08:33:03.497Z,100326.89
2018-12-05T08:35:30.938Z,100325.72
2018-12-05T08:37:58.372Z,100325.31
2018-12-05T08:40:26.729Z,100323.14
2018-12-05T08:42:54.151Z,100327.33
2018-12-05T08:45:21.627Z,100320.38
2018-12-05T08:47:49.044Z,100321.46
2018-12-05T08:50:16.473Z,100318.14
2018-12-05T08:52:44.044Z,100323.89
2018-12-05T08:55:11.500Z,100317.58
2018-12-05T08:57:38.932Z,100319.41
2018-12-05T09:00:06.389Z,100319.66
2018-12-05T09:02:33.827Z,100323.84
2018-12-05T09:05:01.245Z,100320.44
2018-12-05T09:07:28.704Z,100322.63
2018-12-05T09:09:56.128Z,100321.70
2018-12-05T09:12:23.584Z,100321.69
2018-12-05T09:14:51.001Z,100318.94
2018-12-05T09:17:18.463Z,100314.25
2018-12-05T09:19:45.893Z,100316.98
2018-12-05T09:22:13.336Z,100314.55
2018-12-05T09:24:40.755Z,100311.06
2018-12-05T09:27:08.212Z,100317.20
2018-12-05T09:29:35.666Z,100302.75
2018-12-05T09:32:03.565Z,100297.63
2018-12-05T09:34:31.819Z,100285.84
2018-12-05T09:37:00.251Z,100281.02
2018-12-05T09:39:27.776Z,100290.20
2018-12-05T09:41:55.217Z,100284.48
2018-12-05T09:44:22.677Z,100284.61
2018-12-05T09:46:50.111Z,100280.55
2018-12-05T09:49:17.540Z,100274.63
2018-12-05T09:51:45.021Z,100267.45
2018-12-05T09:54:12.489Z,100269.20
2018-12-05T09:56:39.906Z,100271.03
2018-12-05T09:59:08.207Z,100272.97
2018-12-05T10:01:35.682Z,100261.66
2018-12-05T10:04:03.117Z,100257.36
2018-12-05T10:06:30.573Z,100257.22
2018-12-05T10:08:58.033Z,100264.53
2018-12-05T10:11:25.485Z,100262.97
2018-12-05T10:13:52.954Z,100249.54
2018-12-05T10:16:20.424Z,100240.59
2018-12-05T10:18:47.835Z,100229.12
2018-12-05T10:21:15.288Z,100235.36
2018-12-05T10:23:42.706Z,100229.42
2018-12-05T10:26:10.133Z,100226.98
2018-12-05T10:28:37.591Z,100231.23
2018-12-05T10:31:05.010Z,100229.23
2018-12-05T10:33:32.459Z,100230.83
2018-12-05T10:35:59.910Z,100223.46
2018-12-05T10:38:27.323Z,100224.93
2018-12-05T10:40:54.762Z,100223.68
2018-12-05T10:43:24.407Z,100217.33
2018-12-05T10:45:51.855Z,100207.81
2018-12-05T10:48:19.309Z,100208.32
2018-12-05T10:50:46.752Z,100203.27
2018-12-05T10:53:14.218Z,100201.77
2018-12-05T10:55:41.682Z,100193.01
2018-12-05T10:58:09.125Z,100195.59
2018-12-05T11:00:42.081Z,100188.98
2018-12-05T11:03:14.935Z,100194.26
2018-12-05T11:05:48.870Z,100188.36
2018-12-05T11:08:19.375Z,100188.67
2018-12-05T11:10:52.332Z,100172.40
2018-12-05T11:13:25.434Z,100166.60
2018-12-05T11:15:58.381Z,100162.75
2018-12-05T11:18:32.878Z,100159.02
2018-12-05T11:21:04.429Z,100157.84
2018-12-05T11:23:37.523Z,100147.55
2018-12-05T11:26:04.944Z,100135.45
2018-12-05T11:28:32.366Z,100137.23
2018-12-05T11:31:30.369Z,100136.27
2018-12-05T11:34:28.139Z,100124.01
2018-12-05T11:37:26.008Z,100121.75
2018-12-05T11:40:23.844Z,100135.87
2018-12-05T11:43:21.589Z,100129.15
2018-12-05T11:46:19.449Z,100132.20
2018-12-05T11:48:46.887Z,100133.95
2018-12-05T11:51:14.342Z,100139.33
2018-12-05T11:53:41.757Z,100134.09
2018-12-05T11:56:09.264Z,100133.42
2018-12-05T11:58:36.689Z,100120.60
2018-12-05T12:01:04.190Z,100114.45
2018-12-05T12:03:31.610Z,100113.30
2018-12-05T12:05:59.066Z,100098.33
2018-12-05T12:08:26.498Z,100102.11
2018-12-05T12:10:53.904Z,100098.61
2018-12-05T12:13:21.344Z,100098.05
2018-12-05T12:15:48.812Z,100093.05
2018-12-05T12:18:16.270Z,100079.50
2018-12-05T12:20:43.705Z,100075.95
2018-12-05T12:23:11.179Z,100083.45
2018-12-05T12:25:38.588Z,100070.61
2018-12-05T12:28:06.044Z,100070.08
2018-12-05T12:30:33.458Z,100063.56
2018-12-05T12:33:02.656Z,100054.67
2018-12-05T12:35:29.516Z,100049.80
2018-12-05T12:37:57.052Z,100046.66
2018-12-05T12:40:24.513Z,100051.02
2018-12-05T12:42:51.941Z,100046.53
2018-12-05T12:45:20.124Z,100040.86
2018-12-05T12:47:46.914Z,100030.25
2018-12-05T12:50:14.338Z,100022.59
2018-12-05T12:52:41.772Z,100019.67
2018-12-05T12:55:09.243Z,100011.77
2018-12-05T12:57:36.670Z,100016.80
2018-12-05T13:00:04.150Z,100017.07
2018-12-05T13:02:31.572Z,100015.22
2018-12-05T13:04:59.008Z,100012.39
2018-12-05T13:07:26.467Z,100009.40
2018-12-05T13:09:53.915Z,100009.25
2018-12-05T13:12:26.306Z,100004.02
2018-12-05T13:14:53.764Z,99993.58
2018-12-05T13:34:24.158Z,99973.94
2018-12-05T13:36:51.588Z,99968.10
2018-12-05T13:39:19.009Z,99967.43
2018-12-05T13:41:46.430Z,99959.09
2018-12-05T13:44:13.869Z,99970.45
2018-12-05T13:46:41.288Z,99966.36
2018-12-05T13:49:08.726Z,99967.89
2018-12-05T13:51:36.158Z,99961.34
2018-12-05T13:54:03.584Z,99954.08
2018-12-05T13:56:31.015Z,99954.16
2018-12-05T13:58:58.485Z,99950.52
2018-12-05T14:01:25.914Z,99945.38
2018-12-05T14:03:53.357Z,99938.19
2018-12-05T14:06:20.769Z,99932.34
2018-12-05T14:08:48.213Z,99926.13
2018-12-05T14:11:15.643Z,99919.03
2018-12-05T14:13:43.079Z,99909.23
2018-12-05T14:16:10.513Z,99907.59
2018-12-05T14:18:37.949Z,99904.70
2018-12-05T14:21:05.365Z,99909.16
2018-12-05T14:23:32.836Z,99904.11
2018-12-05T14:26:00.256Z,99905.47
2018-12-05T14:28:29.841Z,99899.19
2018-12-05T14:30:57.317Z,99905.56
2018-12-05T14:33:24.756Z,99901.95
2018-12-05T14:35:52.209Z,99903.16
2018-12-05T14:38:19.634Z,99890.36
2018-12-05T14:40:47.080Z,99893.81
2018-12-05T14:43:14.526Z,99888.00
2018-12-05T14:45:41.948Z,99888.52
2018-12-05T14:48:09.371Z,99892.39
2018-12-05T14:50:36.823Z,99879.77
2018-12-05T14:53:04.261Z,99883.13
2018-12-05T14:55:31.690Z,99874.66
2018-12-05T14:57:59.127Z,99877.71
2018-12-05T15:00:26.553Z,99874.91
2018-12-05T15:02:55.127Z,99866.66
2018-12-05T15:05:22.633Z,99863.18
2018-12-05T15:07:50.073Z,99862.78
2018-12-05T15:10:17.471Z,99859.13
2018-12-05T15:12:44.932Z,99851.40
2018-12-05T15:15:12.378Z,99843.90
2018-12-05T15:17:39.819Z,99840.54
2018-12-05T15:20:07.277Z,99838.30
2018-12-05T15:22:34.786Z,99839.06
2018-12-05T15:25:02.218Z,99839.27
2018-12-05T15:27:29.645Z,99838.16
2018-12-05T15:46:59.486Z,99799.47
2018-12-05T15:49:26.948Z,99792.45
2018-12-05T15:51:54.383Z,99798.80
2018-12-05T15:54:21.812Z,99795.04
2018-12-05T15:56:49.233Z,99787.67
2018-12-05T15:59:16.729Z,99781.12
2018-12-05T16:01:44.174Z,99783.64
2018-12-05T16:04:11.620Z,99771.72
2018-12-05T16:06:39.036Z,99767.44
2018-12-05T16:09:06.506Z,99767.31
2018-12-05T16:11:35.057Z,99755.20
2018-12-05T16:14:02.576Z,99743.28
2018-12-05T16:16:30.003Z,99744.17
2018-12-05T16:18:57.433Z,99741.40
2018-12-05T16:21:24.895Z,99736.91
2018-12-05T16:23:52.319Z,99724.68
2018-12-05T16:26:19.749Z,99716.58
2018-12-05T16:28:47.191Z,99721.66
2018-12-05T16:31:14.633Z,99722.64
2018-12-05T16:33:42.057Z,99722.25
2018-12-05T16:36:11.210Z,99718.45
2018-12-05T16:38:37.117Z,99713.34
2018-12-05T16:41:04.553Z,99709.95
2018-12-05T16:43:32.006Z,99716.67
2018-12-05T16:45:59.462Z,99713.71
2018-12-05T16:48:26.891Z,99708.05
2018-12-05T16:50:54.362Z,99702.09
2018-12-05T16:53:21.852Z,99705.19
2018-12-05T16:55:49.270Z,99700.36
2018-12-05T16:58:16.712Z,99700.83
2018-12-05T17:00:44.133Z,99702.05
2018-12-05T17:03:11.614Z,99697.38
2018-12-05T17:05:39.015Z,99696.06
2018-12-05T17:08:07.011Z,99695.44
2018-12-05T17:10:34.457Z,99690.30
2018-12-05T17:13:01.907Z,99685.09
2018-12-05T17:15:29.391Z,99683.45
2018-12-05T17:17:56.864Z,99680.97
2018-12-05T17:20:24.285Z,99671.85
2018-12-05T17:22:51.775Z,99676.45
2018-12-05T17:25:19.230Z,99677.09
2018-12-05T17:27:46.641Z,99672.97
2018-12-05T17:30:14.072Z,99663.23
2018-12-05T17:32:41.477Z,99668.90
2018-12-05T17:35:08.920Z,99663.84
2018-12-05T17:37:36.329Z,99656.38
2018-12-05T17:40:03.796Z,99662.64
2018-12-05T17:42:31.199Z,99659.81
2018-12-05T17:44:58.609Z,99647.09
2018-12-05T17:47:26.053Z,99654.68
2018-12-05T17:49:53.461Z,99650.02
2018-12-05T17:52:20.895Z,99643.40
2018-12-05T17:54:48.334Z,99646.51
2018-12-05T17:57:15.784Z,99641.75
2018-12-05T17:59:43.209Z,99638.53
2018-12-05T18:02:10.636Z,99642.77
2018-12-05T18:04:38.048Z,99638.91
2018-12-05T18:07:06.831Z,99629.61
2018-12-05T18:09:32.951Z,99619.67
2018-12-05T18:12:00.378Z,99620.08
2018-12-05T18:14:27.835Z,99606.41
2018-12-05T18:16:55.261Z,99601.78
2018-12-05T18:19:22.703Z,99594.59
2018-12-05T18:21:50.125Z,99587.59
2018-12-05T18:24:17.570Z,99577.19
2018-12-05T18:26:44.986Z,99573.25
2018-12-05T18:29:12.443Z,99563.11
2018-12-05T18:31:39.882Z,99560.50
2018-12-05T18:34:07.293Z,99566.27
2018-12-05T18:36:34.732Z,99562.14
2018-12-05T18:39:02.170Z,99552.77
2018-12-05T18:41:29.583Z,99556.79
2018-12-05T18:43:57.017Z,99541.03
2018-12-05T18:46:24.503Z,99548.00
2018-12-05T18:48:51.994Z,99540.56
2018-12-05T18:51:19.407Z,99540.41
2018-12-05T18:53:46.868Z,99546.66
2018-12-05T18:56:14.300Z,99551.97
2018-12-05T18:58:41.737Z,99553.38
2018-12-05T19:01:09.207Z,99544.64
2018-12-05T19:03:36.654Z,99539.66
2018-12-05T19:06:05.289Z,99530.05
2018-12-05T19:08:34.424Z,99527.39
2018-12-05T19:11:00.169Z,99525.81
2018-12-05T19:30:30.338Z,99499.00
2018-12-05T19:32:57.711Z,99491.14
2018-12-05T19:35:25.138Z,99492.16
2018-12-05T19:37:52.579Z,99489.99
2018-12-05T19:40:20.038Z,99479.55
2018-12-05T19:42:47.485Z,99479.59
2018-12-05T19:45:14.902Z,99479.32
2018-12-05T19:47:42.391Z,99463.59
2018-12-05T19:50:09.804Z,99449.42
2018-12-05T19:52:38.279Z,99450.91
2018-12-05T19:55:05.719Z,99462.06
2018-12-05T19:57:33.146Z,99467.36
2018-12-05T20:00:00.573Z,99468.23
2018-12-05T20:02:28.000Z,99455.88
2018-12-05T20:04:55.453Z,99452.80
2018-12-05T20:07:24.669Z,99449.55
2018-12-05T20:09:52.184Z,99445.80
2018-12-05T20:12:19.635Z,99446.17
2018-12-05T20:14:47.055Z,99452.13
2018-12-05T20:17:14.492Z,99444.78
2018-12-05T20:19:41.925Z,99446.03
2018-12-05T20:22:09.381Z,99434.15
2018-12-05T20:24:38.029Z,99447.53
2018-12-05T20:27:05.467Z,99441.23
2018-12-05T20:29:33.864Z,99447.92
2018-12-05T20:32:01.291Z,99459.36
2018-12-05T20:34:28.746Z,99451.27
2018-12-05T20:36:56.171Z,99444.91
2018-12-05T20:39:26.147Z,99432.79
2018-12-05T20:41:51.655Z,99427.76
2018-12-05T20:44:19.090Z,99423.19
2018-12-05T20:46:46.517Z,99421.37
2018-12-05T20:49:13.943Z,99424.25
2018-12-05T20:51:41.415Z,99419.91
2018-12-05T20:54:08.833Z,99417.23
2018-12-05T20:56:36.231Z,99418.55
2018-12-05T20:59:04.333Z,99412.70
2018-12-05T21:01:31.774Z,99425.23
2018-12-05T21:03:59.211Z,99432.75
2018-12-05T21:06:26.717Z,99422.75
2018-12-05T21:08:54.151Z,99411.97
2018-12-05T21:11:22.359Z,99398.58
2018-12-05T21:13:49.899Z,99394.94
2018-12-05T21:16:17.344Z,99393.22
2018-12-05T21:18:44.779Z,99390.73
2018-12-05T21:21:12.211Z,99401.00
2018-12-05T21:23:39.667Z,99405.23
2018-12-05T21:46:09.956Z,99374.83
2018-12-05T21:48:37.381Z,99377.16
2018-12-05T21:51:04.809Z,99380.38
2018-12-05T21:53:32.251Z,99382.63
2018-12-05T21:55:59.704Z,99385.28
2018-12-05T21:58:28.760Z,99383.59
2018-12-05T22:00:56.393Z,99398.91
2018-12-05T22:03:23.845Z,99394.34
2018-12-05T22:05:51.267Z,99386.41
2018-12-05T22:08:20.167Z,99375.03
2018-12-05T22:30:50.156Z,99356.18
2018-12-05T22:33:17.575Z,99356.73
2018-12-05T22:35:45.013Z,99351.95
2018-12-05T22:38:12.448Z,99348.57
2018-12-05T22:40:39.875Z,99353.98
2018-12-05T22:43:07.332Z,99340.85
2018-12-05T22:45:34.895Z,99339.80
2018-12-05T22:48:02.324Z,99342.66
2018-12-05T22:50:29.774Z,99335.61
2018-12-05T22:52:57.200Z,99333.66
2018-12-05T22:55:24.633Z,99331.78
2018-12-05T22:57:52.083Z,99330.34
2018-12-05T23:00:19.566Z,99323.41
2018-12-05T23:02:47.004Z,99320.81
2018-12-05T23:05:14.433Z,99326.14
2018-12-05T23:07:41.922Z,99315.39
2018-12-05T23:10:09.345Z,99319.58
2018-12-05T23:15:10.530Z,99307.61
2018-12-05T23:17:37.978Z,99314.94
2018-12-05T23:20:05.435Z,99319.00
2018-12-05T23:22:32.896Z,99313.20
2018-12-05T23:25:00.333Z,99303.98
2018-12-05T23:27:27.772Z,99297.97
2018-12-05T23:29:55.201Z,99297.11
2018-12-05T23:49:24.627Z,99271.91
2018-12-05T23:51:52.090Z,99276.67
2018-12-05T23:54:19.545Z,99271.08
2018-12-05T23:56:46.995Z,99267.45
2018-12-05T23:59:14.439Z,99268.45
